createdAt,value
2018-02-25T00:00:30.999Z,38.30
2018-02-25T00:02:57.108Z,38.20
2018-02-25T00:05:23.226Z,38.70
2018-02-25T00:07:50.112Z,38.60
2018-02-25T00:10:16.257Z,38.60
2018-02-25T00:12:42.595Z,38.50
2018-02-25T00:15:08.910Z,38.30
2018-02-25T00:17:36.227Z,38.70
2018-02-25T00:20:03.084Z,38.60
2018-02-25T00:22:36.270Z,38.90
2018-02-25T00:25:02.897Z,39.10
2018-02-25T00:27:29.496Z,38.80
2018-02-25T00:29:57.181Z,39.10
2018-02-25T00:32:25.301Z,38.90
2018-02-25T00:34:56.270Z,38.90
2018-02-25T00:37:25.224Z,39.20
2018-02-25T00:39:54.049Z,39.30
2018-02-25T00:42:22.865Z,39.40
2018-02-25T00:44:52.181Z,39.40
2018-02-25T00:47:20.647Z,39.10
2018-02-25T00:49:49.136Z,39.60
2018-02-25T00:52:16.413Z,40.30
2018-02-25T00:54:42.655Z,39.90
2018-02-25T00:57:08.844Z,40.60
2018-02-25T00:59:35.385Z,40.50
2018-02-25T01:02:01.495Z,40.60
2018-02-25T01:04:28.390Z,40.40
2018-02-25T01:06:54.523Z,40.40
2018-02-25T01:09:20.630Z,40.40
2018-02-25T01:11:48.010Z,40.70
2018-02-25T01:14:16.112Z,40.50
2018-02-25T01:16:42.236Z,40.50
2018-02-25T01:19:09.946Z,40.30
2018-02-25T01:21:36.607Z,40.60
2018-02-25T01:24:02.735Z,40.80
2018-02-25T01:26:28.851Z,40.90
2018-02-25T01:32:07.421Z,40.60
2018-02-25T01:34:33.569Z,40.90
2018-02-25T01:39:55.238Z,40.40
2018-02-25T01:42:25.276Z,40.30
2018-02-25T01:44:55.819Z,40.90
2018-02-25T01:47:25.517Z,41.00
2018-02-25T01:49:52.781Z,41.20
2018-02-25T01:52:20.816Z,41.50
2018-02-25T01:54:47.988Z,41.50
2018-02-25T01:57:15.123Z,41.50
2018-02-25T01:59:42.304Z,41.50
2018-02-25T02:02:11.280Z,41.10
2018-02-25T02:04:40.286Z,40.90
2018-02-25T02:07:09.150Z,40.90
2018-02-25T02:09:35.483Z,41.30
2018-02-25T02:12:02.416Z,42.00
2018-02-25T02:14:28.549Z,41.50
2018-02-25T02:16:54.671Z,41.40
2018-02-25T02:19:20.799Z,41.30
2018-02-25T02:21:46.959Z,41.10
2018-02-25T02:24:13.064Z,41.30
2018-02-25T02:26:39.174Z,41.50
2018-02-25T02:29:05.386Z,41.20
2018-02-25T02:31:31.488Z,41.10
2018-02-25T02:33:57.793Z,41.30
2018-02-25T02:36:23.919Z,41.40
2018-02-25T02:38:50.047Z,41.70
2018-02-25T02:41:16.202Z,42.00
2018-02-25T02:43:42.372Z,42.40
2018-02-25T02:46:08.536Z,42.30
2018-02-25T02:48:34.684Z,42.30
2018-02-25T02:51:00.803Z,41.80
2018-02-25T02:53:26.911Z,41.50
2018-02-25T02:55:53.807Z,41.80
2018-02-25T02:58:19.961Z,41.80
2018-02-25T03:00:46.113Z,41.90
2018-02-25T03:03:12.247Z,42.20
2018-02-25T03:05:38.885Z,42.30
2018-02-25T03:08:05.068Z,42.30
2018-02-25T03:10:31.187Z,42.40
2018-02-25T03:12:57.333Z,42.40
2018-02-25T03:15:23.475Z,42.60
2018-02-25T03:17:49.624Z,42.80
2018-02-25T03:20:15.759Z,42.80
2018-02-25T03:22:41.871Z,42.70
2018-02-25T03:25:08.036Z,42.70
2018-02-25T03:27:34.227Z,42.40
2018-02-25T03:30:00.364Z,42.20
2018-02-25T03:32:26.483Z,41.90
2018-02-25T03:34:52.647Z,42.20
2018-02-25T03:37:18.777Z,42.00
2018-02-25T03:42:48.501Z,42.30
2018-02-25T03:45:18.826Z,42.60
2018-02-25T03:47:49.024Z,43.20
2018-02-25T03:50:19.276Z,43.00
2018-02-25T03:52:45.400Z,42.80
2018-02-25T03:55:11.500Z,42.70
2018-02-25T03:57:37.603Z,42.90
2018-02-25T04:00:03.776Z,41.80
2018-02-25T04:02:30.650Z,41.50
2018-02-25T04:04:56.815Z,41.50
2018-02-25T04:07:22.992Z,41.50
2018-02-25T04:09:49.139Z,41.50
2018-02-25T04:12:15.290Z,41.70
2018-02-25T04:14:41.418Z,41.80
2018-02-25T04:17:07.542Z,42.00
2018-02-25T04:19:33.708Z,41.80
2018-02-25T04:22:00.564Z,42.40
2018-02-25T04:24:27.413Z,42.70
2018-02-25T04:26:53.551Z,42.70
2018-02-25T04:29:19.727Z,42.50
2018-02-25T04:31:45.834Z,42.70
2018-02-25T04:34:12.692Z,43.00
2018-02-25T04:36:38.851Z,43.00
2018-02-25T04:39:06.021Z,43.60
2018-02-25T04:41:32.333Z,42.90
2018-02-25T04:44:00.189Z,43.00
2018-02-25T04:46:29.856Z,42.90
2018-02-25T04:48:58.751Z,42.40
2018-02-25T04:51:26.369Z,41.70
2018-02-25T04:53:55.526Z,41.60
2018-02-25T04:56:24.409Z,41.60
2018-02-25T04:58:51.720Z,41.80
2018-02-25T05:01:18.834Z,42.20
2018-02-25T05:03:46.690Z,42.20
2018-02-25T05:06:15.263Z,42.00
2018-02-25T05:08:42.536Z,41.80
2018-02-25T05:11:09.824Z,41.50
2018-02-25T05:13:36.236Z,42.00
2018-02-25T05:16:03.251Z,42.10
2018-02-25T05:18:31.015Z,42.10
2018-02-25T05:21:00.953Z,42.30
2018-02-25T05:23:28.391Z,42.60
2018-02-25T05:25:58.803Z,42.30
2018-02-25T05:28:26.268Z,42.50
2018-02-25T05:30:54.737Z,42.80
2018-02-25T05:33:23.751Z,42.80
2018-02-25T05:35:50.109Z,42.80
2018-02-25T05:38:18.019Z,42.90
2018-02-25T05:40:45.324Z,42.80
2018-02-25T05:43:14.254Z,43.70
2018-02-25T05:45:41.776Z,43.60
2018-02-25T05:48:10.985Z,43.60
2018-02-25T05:50:39.148Z,43.50
2018-02-25T05:53:05.508Z,43.40
2018-02-25T05:55:32.392Z,43.40
2018-02-25T05:58:00.581Z,43.70
2018-02-25T06:00:30.593Z,43.60
2018-02-25T06:02:58.810Z,43.30
2018-02-25T06:05:28.374Z,43.60
2018-02-25T06:07:56.525Z,43.20
2018-02-25T06:10:25.533Z,43.10
2018-02-25T06:12:52.556Z,42.70
2018-02-25T06:15:18.905Z,42.60
2018-02-25T06:17:47.052Z,42.80
2018-02-25T06:20:16.389Z,42.50
2018-02-25T06:22:47.444Z,42.30
2018-02-25T06:25:14.511Z,42.30
2018-02-25T06:27:41.803Z,42.20
2018-02-25T06:30:09.993Z,42.00
2018-02-25T06:32:39.776Z,41.80
2018-02-25T06:35:10.242Z,41.90
2018-02-25T06:37:39.175Z,41.80
2018-02-25T06:40:05.490Z,41.60
2018-02-25T06:42:31.633Z,41.30
2018-02-25T06:44:57.749Z,42.20
2018-02-25T06:47:23.890Z,41.40
2018-02-25T06:49:51.023Z,41.50
2018-02-25T06:52:17.932Z,41.50
2018-02-25T06:54:45.439Z,41.30
2018-02-25T06:57:12.414Z,41.20
2018-02-25T06:59:43.065Z,41.20
2018-02-25T07:02:09.445Z,41.10
2018-02-25T07:04:35.607Z,41.10
2018-02-25T07:07:01.792Z,41.00
2018-02-25T07:09:27.912Z,40.80
2018-02-25T07:11:54.105Z,40.90
2018-02-25T07:14:20.238Z,40.80
2018-02-25T07:16:46.359Z,41.20
2018-02-25T07:19:12.484Z,41.30
2018-02-25T07:21:38.607Z,40.90
2018-02-25T07:24:04.887Z,40.60
2018-02-25T07:26:31.112Z,40.50
2018-02-25T07:28:57.243Z,40.40
2018-02-25T07:31:23.369Z,40.60
2018-02-25T07:33:49.529Z,40.60
2018-02-25T07:36:15.652Z,40.50
2018-02-25T07:38:41.774Z,40.70
2018-02-25T07:41:07.896Z,40.90
2018-02-25T07:43:34.056Z,40.40
2018-02-25T07:46:00.181Z,40.40
2018-02-25T07:48:26.305Z,40.30
2018-02-25T07:50:52.448Z,40.50
2018-02-25T07:53:18.619Z,40.30
2018-02-25T07:55:47.040Z,41.00
2018-02-25T07:58:13.703Z,40.30
2018-02-25T08:00:40.405Z,40.40
2018-02-25T08:03:06.774Z,40.00
2018-02-25T08:05:33.040Z,40.10
2018-02-25T08:08:01.261Z,40.30
2018-02-25T08:10:28.132Z,39.80
2018-02-25T08:12:55.605Z,39.90
2018-02-25T08:15:23.187Z,39.70
2018-02-25T08:17:50.519Z,40.00
2018-02-25T08:20:18.820Z,39.20
2018-02-25T08:22:48.460Z,39.40
2018-02-25T08:25:15.415Z,39.30
2018-02-25T08:27:43.562Z,38.10
2018-02-25T08:30:11.474Z,37.80
2018-02-25T08:32:37.837Z,37.80
2018-02-25T08:35:04.252Z,38.40
2018-02-25T08:37:30.955Z,38.20
2018-02-25T08:39:57.227Z,38.10
2018-02-25T08:42:25.985Z,38.30
2018-02-25T08:44:54.043Z,37.40
2018-02-25T08:47:24.922Z,36.70
2018-02-25T08:49:58.145Z,36.80
2018-02-25T08:52:26.718Z,36.00
2018-02-25T08:54:56.401Z,36.00
2018-02-25T08:57:32.461Z,35.60
2018-02-25T09:00:00.231Z,35.60
2018-02-25T09:02:30.326Z,35.60
2018-02-25T09:04:59.114Z,35.50
2018-02-25T09:07:26.466Z,35.20
2018-02-25T09:09:59.182Z,34.90
2018-02-25T09:12:25.465Z,34.80
2018-02-25T09:14:59.386Z,34.50
2018-02-25T09:17:28.791Z,34.20
2018-02-25T09:19:58.729Z,33.80
2018-02-25T09:22:28.155Z,33.70
2018-02-25T09:24:58.202Z,33.50
2018-02-25T09:27:36.430Z,32.60
2018-02-25T09:30:02.764Z,32.60
2018-02-25T09:32:30.115Z,32.20
2018-02-25T09:34:59.764Z,32.00
2018-02-25T09:37:28.044Z,32.20
2018-02-25T09:39:58.444Z,32.10
2018-02-25T09:42:29.722Z,32.00
2018-02-25T09:44:59.831Z,31.30
2018-02-25T09:47:28.301Z,31.60
2018-02-25T09:49:58.554Z,31.30
2018-02-25T09:52:29.034Z,30.80
2018-02-25T09:54:58.575Z,30.00
2018-02-25T09:57:28.329Z,30.70
2018-02-25T09:59:58.102Z,30.50
2018-02-25T10:02:28.288Z,30.60
2018-02-25T10:04:57.742Z,30.30
2018-02-25T10:07:26.834Z,29.40
2018-02-25T10:09:53.146Z,29.30
2018-02-25T10:12:19.548Z,28.60
2018-02-25T10:14:45.787Z,29.10
2018-02-25T10:17:14.672Z,28.30
2018-02-25T10:19:40.940Z,28.30
2018-02-25T10:22:07.514Z,28.50
2018-02-25T10:24:33.880Z,27.80
2018-02-25T10:27:00.402Z,28.10
2018-02-25T10:29:27.110Z,27.10
2018-02-25T10:31:53.339Z,27.80
2018-02-25T10:34:19.687Z,27.80
2018-02-25T10:36:46.206Z,27.10
2018-02-25T10:39:12.772Z,27.20
2018-02-25T10:41:39.103Z,26.30
2018-02-25T10:44:05.298Z,25.40
2018-02-25T10:46:33.524Z,25.10
2018-02-25T10:48:59.825Z,24.60
2018-02-25T10:51:26.248Z,24.70
2018-02-25T10:53:54.340Z,25.50
2018-02-25T10:56:21.607Z,25.20
2018-02-25T10:58:47.981Z,25.20
2018-02-25T11:01:14.745Z,24.50
2018-02-25T11:03:40.952Z,24.10
2018-02-25T11:06:07.499Z,23.90
2018-02-25T11:08:40.028Z,24.30
2018-02-25T11:11:07.425Z,24.90
2018-02-25T11:13:33.788Z,24.50
2018-02-25T11:16:00.191Z,24.20
2018-02-25T11:18:27.303Z,23.50
2018-02-25T11:20:53.550Z,24.20
2018-02-25T11:23:20.075Z,22.80
2018-02-25T11:25:46.378Z,22.80
2018-02-25T11:28:12.785Z,23.10
2018-02-25T11:30:39.164Z,23.70
2018-02-25T11:33:05.874Z,23.00
2018-02-25T11:35:32.129Z,22.70
2018-02-25T11:37:58.844Z,22.60
2018-02-25T11:40:25.043Z,22.20
2018-02-25T11:42:51.427Z,22.50
2018-02-25T11:45:18.110Z,22.20
2018-02-25T11:47:44.527Z,22.20
2018-02-25T11:50:10.728Z,21.50
2018-02-25T11:52:37.620Z,21.90
2018-02-25T11:55:04.253Z,21.90
2018-02-25T11:57:30.552Z,21.60
2018-02-25T11:59:57.588Z,22.20
2018-02-25T12:02:24.136Z,22.20
2018-02-25T12:04:50.345Z,22.00
2018-02-25T12:07:16.636Z,21.20
2018-02-25T12:09:42.942Z,20.90
2018-02-25T12:12:09.523Z,20.90
2018-02-25T12:14:35.762Z,20.10
2018-02-25T12:17:02.401Z,20.50
2018-02-25T12:19:28.604Z,20.90
2018-02-25T12:21:55.530Z,20.60
2018-02-25T12:24:21.723Z,20.60
2018-02-25T12:26:47.892Z,20.00
2018-02-25T12:29:14.048Z,20.10
2018-02-25T12:31:41.123Z,19.50
2018-02-25T12:34:08.102Z,20.50
2018-02-25T12:36:34.255Z,20.50
2018-02-25T12:39:01.045Z,20.10
2018-02-25T12:41:27.206Z,19.30
2018-02-25T12:43:54.907Z,19.60
2018-02-25T12:46:21.191Z,17.90
2018-02-25T12:48:48.404Z,18.70
2018-02-25T12:51:17.000Z,18.50
2018-02-25T12:53:43.168Z,17.80
2018-02-25T12:56:10.384Z,18.70
2018-02-25T12:58:36.702Z,18.40
2018-02-25T13:01:03.354Z,18.20
2018-02-25T13:03:31.940Z,17.60
2018-02-25T13:05:58.480Z,18.10
2018-02-25T13:08:24.728Z,18.00
2018-02-25T13:10:50.899Z,17.90
2018-02-25T13:13:18.106Z,17.30
2018-02-25T13:15:44.253Z,17.00
2018-02-25T13:18:10.555Z,17.20
2018-02-25T13:23:40.204Z,16.80
2018-02-25T13:26:06.486Z,16.70
2018-02-25T13:28:35.092Z,16.50
2018-02-25T13:31:01.577Z,16.30
2018-02-25T13:33:28.042Z,16.40
2018-02-25T13:35:54.208Z,15.90
2018-02-25T13:44:17.249Z,16.40
2018-02-25T13:46:43.951Z,16.40
2018-02-25T13:49:10.126Z,15.70
2018-02-25T13:51:37.796Z,16.10
2018-02-25T13:54:04.114Z,16.60
2018-02-25T13:56:32.072Z,16.10
2018-02-25T13:59:00.117Z,16.10
2018-02-25T14:01:27.013Z,15.40
2018-02-25T14:03:53.286Z,15.40
2018-02-25T14:06:19.498Z,16.40
2018-02-25T14:08:45.641Z,15.80
2018-02-25T14:11:13.553Z,15.50
2018-02-25T14:13:39.727Z,15.50
2018-02-25T14:16:06.588Z,15.70
2018-02-25T14:21:26.324Z,15.20
2018-02-25T14:23:52.540Z,15.40
2018-02-25T14:26:19.602Z,15.80
2018-02-25T14:28:46.041Z,15.80
2018-02-25T14:31:16.220Z,16.50
2018-02-25T14:33:42.630Z,16.70
2018-02-25T14:36:09.657Z,15.90
2018-02-25T14:41:39.671Z,16.40
2018-02-25T14:44:07.502Z,16.70
2018-02-25T14:46:33.778Z,15.70
2018-02-25T14:49:00.242Z,14.80
2018-02-25T14:51:26.395Z,15.20
2018-02-25T14:53:52.576Z,14.90
2018-02-25T14:56:19.145Z,14.50
2018-02-25T14:58:45.445Z,15.50
2018-02-25T15:01:11.645Z,15.80
2018-02-25T15:03:38.590Z,15.70
2018-02-25T15:06:05.777Z,15.70
2018-02-25T15:08:31.957Z,16.30
2018-02-25T15:10:58.391Z,17.10
2018-02-25T15:13:24.615Z,17.90
2018-02-25T15:15:50.816Z,18.50
2018-02-25T15:18:17.314Z,18.50
2018-02-25T15:20:43.424Z,18.20
2018-02-25T15:23:09.640Z,18.50
2018-02-25T15:25:36.309Z,18.20
2018-02-25T15:28:03.264Z,18.70
2018-02-25T15:30:30.864Z,18.50
2018-02-25T15:32:59.748Z,18.50
2018-02-25T15:35:28.579Z,18.60
2018-02-25T15:37:54.762Z,18.50
2018-02-25T15:40:24.219Z,18.60
2018-02-25T15:42:50.557Z,18.90
2018-02-25T15:45:16.738Z,18.70
2018-02-25T15:47:42.860Z,19.40
2018-02-25T15:50:08.988Z,19.20
2018-02-25T15:52:35.357Z,19.60
2018-02-25T15:55:02.125Z,19.40
2018-02-25T15:57:28.561Z,19.40
2018-02-25T15:59:54.711Z,19.30
2018-02-25T16:02:22.280Z,20.10
2018-02-25T16:04:48.797Z,20.20
2018-02-25T16:07:16.521Z,20.30
2018-02-25T16:09:43.150Z,19.40
2018-02-25T16:12:09.644Z,20.10
2018-02-25T16:14:36.002Z,21.10
2018-02-25T16:17:02.582Z,22.40
2018-02-25T16:19:29.270Z,23.30
2018-02-25T16:21:56.281Z,24.00
2018-02-25T16:24:22.663Z,23.90
2018-02-25T16:26:48.806Z,24.70
2018-02-25T16:29:15.712Z,24.90
2018-02-25T16:31:42.055Z,22.70
2018-02-25T16:34:08.636Z,21.70
2018-02-25T16:36:35.296Z,21.50
2018-02-25T16:39:01.685Z,21.60
2018-02-25T16:41:27.984Z,21.40
2018-02-25T16:43:54.786Z,21.40
2018-02-25T16:46:21.130Z,21.80
2018-02-25T16:48:47.739Z,24.00
2018-02-25T16:51:14.018Z,25.40
2018-02-25T16:53:40.432Z,25.90
2018-02-25T16:56:09.290Z,27.50
2018-02-25T16:58:35.819Z,27.50
2018-02-25T17:01:02.488Z,27.30
2018-02-25T17:03:28.985Z,27.00
2018-02-25T17:05:55.191Z,28.10
2018-02-25T17:08:21.858Z,26.10
2018-02-25T17:10:48.847Z,24.60
2018-02-25T17:13:15.787Z,23.80
2018-02-25T17:15:41.960Z,23.80
2018-02-25T17:18:08.205Z,23.30
2018-02-25T17:20:35.115Z,23.00
2018-02-25T17:23:01.552Z,23.20
2018-02-25T17:25:28.701Z,22.80
2018-02-25T17:27:54.913Z,22.80
2018-02-25T17:30:21.119Z,23.20
2018-02-25T17:32:47.259Z,23.30
2018-02-25T17:35:13.399Z,23.40
2018-02-25T17:37:40.290Z,23.70
2018-02-25T17:40:06.471Z,23.70
2018-02-25T17:42:33.029Z,23.40
2018-02-25T17:45:00.021Z,23.90
2018-02-25T17:47:27.969Z,24.10
2018-02-25T17:49:54.103Z,24.20
2018-02-25T17:52:20.643Z,24.60
2018-02-25T17:54:46.816Z,24.70
2018-02-25T17:57:12.955Z,24.70
2018-02-25T17:59:39.103Z,24.90
2018-02-25T18:02:05.642Z,24.80
2018-02-25T18:04:32.200Z,25.00
2018-02-25T18:06:59.803Z,25.40
2018-02-25T18:09:26.040Z,25.40
2018-02-25T18:11:52.323Z,25.70
2018-02-25T18:14:18.518Z,26.00
2018-02-25T18:16:44.640Z,26.20
2018-02-25T18:19:11.512Z,26.60
2018-02-25T18:21:38.379Z,26.90
2018-02-25T18:24:04.575Z,26.90
2018-02-25T18:26:31.034Z,26.80
2018-02-25T18:28:58.188Z,27.20
2018-02-25T18:31:25.073Z,27.00
2018-02-25T18:33:51.618Z,27.00
2018-02-25T18:36:17.768Z,27.40
2018-02-25T18:38:43.890Z,27.80
2018-02-25T18:41:10.045Z,27.50
2018-02-25T18:43:36.555Z,27.50
2018-02-25T18:46:03.068Z,27.70
2018-02-25T18:48:29.829Z,27.80
2018-02-25T18:50:56.734Z,28.20
2018-02-25T18:53:22.891Z,28.20
2018-02-25T18:55:49.059Z,28.30
2018-02-25T18:58:15.203Z,28.30
2018-02-25T19:00:41.348Z,28.40
2018-02-25T19:03:07.482Z,28.40
2018-02-25T19:05:33.754Z,28.80
2018-02-25T19:08:00.188Z,29.30
2018-02-25T19:10:26.395Z,29.30
2018-02-25T19:12:54.663Z,29.80
2018-02-25T19:15:20.886Z,29.90
2018-02-25T19:17:47.965Z,30.20
2018-02-25T19:20:14.096Z,30.20
2018-02-25T19:22:42.769Z,30.80
2018-02-25T19:25:09.033Z,31.10
2018-02-25T19:27:35.308Z,31.30
2018-02-25T19:30:01.986Z,31.30
2018-02-25T19:32:28.486Z,31.50
2018-02-25T19:34:54.632Z,31.20
2018-02-25T19:37:26.920Z,31.30
2018-02-25T19:39:59.507Z,31.90
2018-02-25T19:42:25.628Z,31.90
2018-02-25T19:44:52.036Z,32.40
2018-02-25T19:47:19.380Z,32.70
2018-02-25T19:49:45.588Z,32.70
2018-02-25T19:52:12.472Z,33.10
2018-02-25T19:54:38.639Z,33.60
2018-02-25T19:57:05.162Z,34.30
2018-02-25T19:59:31.833Z,34.30
2018-02-25T20:01:58.561Z,35.30
2018-02-25T20:04:24.880Z,34.80
2018-02-25T20:06:51.405Z,35.20
2018-02-25T20:09:17.628Z,35.70
2018-02-25T20:11:43.840Z,36.30
2018-02-25T20:14:09.968Z,37.00
2018-02-25T20:16:36.261Z,37.80
2018-02-25T20:19:02.969Z,38.10
2018-02-25T20:21:29.413Z,38.60
2018-02-25T20:23:55.569Z,38.90
2018-02-25T20:26:21.802Z,39.30
2018-02-25T20:28:48.267Z,40.10
2018-02-25T20:31:14.423Z,40.30
2018-02-25T20:33:40.539Z,40.30
2018-02-25T20:36:06.921Z,39.90
2018-02-25T20:38:33.246Z,40.10
2018-02-25T20:40:59.958Z,40.10
2018-02-25T20:43:26.134Z,40.20
2018-02-25T20:45:52.520Z,40.00
2018-02-25T20:48:19.803Z,39.80
2018-02-25T20:50:45.975Z,39.80
2018-02-25T20:53:12.129Z,40.40
2018-02-25T20:55:38.259Z,40.40
2018-02-25T20:58:04.731Z,40.70
2018-02-25T21:00:32.512Z,40.40
2018-02-25T21:02:58.771Z,40.40
2018-02-25T21:05:24.899Z,39.90
2018-02-25T21:07:51.959Z,40.20
2018-02-25T21:10:19.059Z,39.70
2018-02-25T21:12:45.216Z,39.70
2018-02-25T21:15:11.396Z,39.60
2018-02-25T21:17:44.086Z,40.30
2018-02-25T21:20:10.211Z,40.30
2018-02-25T21:22:36.327Z,40.40
2018-02-25T21:25:02.970Z,40.60
2018-02-25T21:27:29.247Z,40.50
2018-02-25T21:29:55.439Z,40.90
2018-02-25T21:32:21.585Z,41.00
2018-02-25T21:34:49.544Z,41.00
2018-02-25T21:37:16.722Z,41.20
2018-02-25T21:39:45.320Z,41.20
2018-02-25T21:45:18.171Z,41.90
2018-02-25T21:47:47.603Z,41.80
2018-02-25T21:50:18.229Z,42.30
2018-02-25T21:52:46.364Z,42.20
2018-02-25T21:55:14.410Z,42.30
2018-02-25T21:57:49.394Z,42.70
2018-02-25T22:00:28.720Z,42.80
2018-02-25T22:12:03.819Z,43.50
